Airfield :
LOGIN :

Register | Disclaimer

   EN    FR    IT 

 










Legend :    VFR   Marginal VFR   IFR   Intensive IFR   Very Intensive IFR
Visi :
Ceiling :
>= 8 km
>= 3000ft
5 to 8 km
1000 to 3000 ft
1500m to 5 km
500 to 1000 ft
800 to 1500m
200 to 500 ft
< 800m
< 200 ft
Symbols :   Thunderstorms  Fog  Heavy snow  Heavy precipitations  Wind > 20 kt
SIGMETs :     Misc.  Thunderstorms  Icing  Turbulence  Mountain Waves  Volcanic Ashes






- Airport Elevation : 856 ft
- IATA code : VGO


LEVX - Vigo Peinador

CURRENT METAR :
  • 201923Z 18004KT 070V220 1500 0500S RA BCFG VV001 13/13 Q0995 TEMPO RA

EXPIRED METARs :
  • 201900Z 17004KT 100V240 0200 R19/P2000 R01/0350N -RA FG VV001 13/13 Q0996 TEMPO RA
  • 201800Z VRB02KT 3000 1000E BCFG FEW022 BKN032 OVC040 14/13 Q0994 TEMPO 2900 RA
  • 201730Z 19003KT 120V250 9999 BKN036 14/13 Q0995 TEMPO 3000 RA
  • 201700Z 26004KT 9999 BKN044 14/13 Q0995 RERA TEMPO 3000 RA

TAF TAF LEVX
Valid from the 20 at 18:00 until the 21 at 18:00 UTC


201700Z 2018/2118 17009KT 8000 SCT010 BKN025 TX14/2112Z TN12/2106Z
TEMPO 2018/2118 3000 RA BKN010
TEMPO 2018/2112 1500 RA BKN005
PROB30
TEMPO 2018/2112 0350 +RADZ BKN003
TEMPO 2021/2106 18015G25KT SHRA TS SCT025TCU SCT030CB



MET'MAP, your aeronautical weather chart ! - Copyright ORBIFLY December 2007 - Disclaimer

ORBIFLY MET'MAP TEAM :

Programming & Development : Alexandra Zaïnal
Concept & original design : Baudouin d'Aumeries
Assistance for programming : Marc-Olivier Méhu
Technical & hardware support : Manuel Goepfert

Contact : metmap@orbifly.com




SOURCES & CREDITS :

   NOAA